createdAt,value
2018-09-14T00:00:11.074Z,9.50
2018-09-14T00:02:46.003Z,9.50
2018-09-14T00:05:20.771Z,9.40
2018-09-14T00:07:55.699Z,9.40
2018-09-14T00:10:32.780Z,9.30
2018-09-14T00:13:07.241Z,9.30
2018-09-14T00:15:41.516Z,9.40
2018-09-14T00:18:16.671Z,9.30
2018-09-14T00:20:51.542Z,9.30
2018-09-14T00:23:25.779Z,9.30
2018-09-14T00:26:00.034Z,9.40
2018-09-14T00:28:34.607Z,9.40
2018-09-14T00:31:09.323Z,9.40
2018-09-14T00:33:43.689Z,9.40
2018-09-14T00:36:18.020Z,9.50
2018-09-14T00:38:52.432Z,9.50
2018-09-14T00:41:27.712Z,9.50
2018-09-14T00:44:02.681Z,9.50
2018-09-14T00:46:37.806Z,9.50
2018-09-14T00:49:12.187Z,9.50
2018-09-14T00:51:48.712Z,9.40
2018-09-14T00:54:29.021Z,9.40
2018-09-14T00:57:03.976Z,9.30
2018-09-14T00:59:41.596Z,9.30
2018-09-14T01:02:15.822Z,9.30
2018-09-14T01:04:49.936Z,9.20
2018-09-14T01:07:24.190Z,9.10
2018-09-14T01:09:58.595Z,9.10
2018-09-14T01:12:32.983Z,9.10
2018-09-14T01:15:07.171Z,9.00
2018-09-14T01:17:43.505Z,8.90
2018-09-14T01:20:20.341Z,9.00
2018-09-14T01:22:58.140Z,9.00
2018-09-14T01:25:33.378Z,9.00
2018-09-14T01:28:07.849Z,9.10
2018-09-14T01:30:43.286Z,9.00
2018-09-14T01:33:17.576Z,9.10
2018-09-14T01:35:57.437Z,9.10
2018-09-14T01:38:35.216Z,9.20
2018-09-14T01:41:09.903Z,9.20
2018-09-14T01:43:45.626Z,9.20
2018-09-14T01:46:26.031Z,9.20
2018-09-14T01:49:01.947Z,9.20
2018-09-14T01:51:36.743Z,9.20
2018-09-14T01:54:11.040Z,9.20
2018-09-14T01:56:45.312Z,9.20
2018-09-14T01:59:20.345Z,9.20
2018-09-14T02:01:55.879Z,9.20
2018-09-14T02:04:30.935Z,9.10
2018-09-14T02:07:05.724Z,9.10
2018-09-14T02:09:40.767Z,9.20
2018-09-14T02:12:17.029Z,9.20
2018-09-14T02:14:51.473Z,9.10
2018-09-14T02:17:25.895Z,9.00
2018-09-14T02:20:00.307Z,9.00
2018-09-14T02:22:34.937Z,9.00
2018-09-14T02:25:09.925Z,8.90
2018-09-14T02:27:44.795Z,8.90
2018-09-14T02:30:19.245Z,8.90
2018-09-14T02:32:53.653Z,8.90
2018-09-14T02:35:30.549Z,8.90
2018-09-14T02:38:04.994Z,8.90
2018-09-14T02:40:39.286Z,8.90
2018-09-14T02:43:13.539Z,8.90
2018-09-14T02:45:48.468Z,8.90
2018-09-14T02:48:22.832Z,8.90
2018-09-14T02:50:57.870Z,8.90
2018-09-14T02:53:32.183Z,8.90
2018-09-14T02:56:06.486Z,8.90
2018-09-14T02:58:40.702Z,8.90
2018-09-14T03:01:14.877Z,8.90
2018-09-14T03:03:49.132Z,8.90
2018-09-14T03:06:24.600Z,8.90
2018-09-14T03:08:58.948Z,8.90
2018-09-14T03:11:34.278Z,8.90
2018-09-14T03:14:08.636Z,8.80
2018-09-14T03:16:42.863Z,8.80
2018-09-14T03:19:17.256Z,8.80
2018-09-14T03:21:51.825Z,8.80
2018-09-14T03:24:26.092Z,8.80
2018-09-14T03:27:00.396Z,8.80
2018-09-14T03:29:34.712Z,8.80
2018-09-14T03:32:09.894Z,8.80
2018-09-14T03:34:44.393Z,8.80
2018-09-14T03:37:18.669Z,8.80
2018-09-14T03:39:52.918Z,8.70
2018-09-14T03:42:27.034Z,8.70
2018-09-14T03:45:01.354Z,8.70
2018-09-14T03:47:35.654Z,8.70
2018-09-14T03:50:09.973Z,8.70
2018-09-14T03:52:44.364Z,8.70
2018-09-14T03:55:18.727Z,8.70
2018-09-14T03:57:54.338Z,8.70
2018-09-14T04:00:28.621Z,8.70
2018-09-14T04:03:02.793Z,8.70
2018-09-14T04:05:38.057Z,8.70
2018-09-14T04:08:12.814Z,8.70
2018-09-14T04:10:47.117Z,8.70
2018-09-14T04:13:21.405Z,8.80
2018-09-14T04:15:55.873Z,8.80
2018-09-14T04:18:30.428Z,8.70
2018-09-14T04:21:04.713Z,8.70
2018-09-14T04:23:39.114Z,8.70
2018-09-14T04:26:13.329Z,8.70
2018-09-14T04:28:48.664Z,8.70
2018-09-14T04:31:23.793Z,8.70
2018-09-14T04:33:58.185Z,8.70
2018-09-14T04:36:33.085Z,8.60
2018-09-14T04:39:09.950Z,8.60
2018-09-14T04:44:25.585Z,8.50
2018-09-14T04:46:59.865Z,8.50
2018-09-14T04:49:34.264Z,8.50
2018-09-14T04:52:08.660Z,8.50
2018-09-14T04:54:42.915Z,8.40
2018-09-14T04:57:17.477Z,8.40
2018-09-14T04:59:52.472Z,8.40
2018-09-14T05:02:26.749Z,8.40
2018-09-14T05:05:01.098Z,8.30
2018-09-14T05:07:36.865Z,8.30
2018-09-14T05:10:11.659Z,8.20
2018-09-14T05:12:46.285Z,8.20
2018-09-14T05:15:21.240Z,8.10
2018-09-14T05:17:55.728Z,8.10
2018-09-14T05:20:30.238Z,8.10
2018-09-14T05:23:05.746Z,8.10
2018-09-14T05:25:40.310Z,8.10
2018-09-14T05:28:19.904Z,8.10
2018-09-14T05:30:54.421Z,8.10
2018-09-14T05:33:34.184Z,8.10
2018-09-14T05:36:10.781Z,8.10
2018-09-14T05:38:46.844Z,8.10
2018-09-14T05:41:23.751Z,8.20
2018-09-14T05:43:58.185Z,8.30
2018-09-14T05:46:34.543Z,8.30
2018-09-14T05:49:09.512Z,8.40
2018-09-14T05:51:44.563Z,8.50
2018-09-14T05:54:19.923Z,8.50
2018-09-14T05:56:55.405Z,8.70
2018-09-14T05:59:30.059Z,8.70
2018-09-14T06:02:04.438Z,8.80
2018-09-14T06:04:38.866Z,8.80
2018-09-14T06:07:13.558Z,8.90
2018-09-14T06:09:47.838Z,8.90
2018-09-14T06:12:22.182Z,9.00
2018-09-14T06:14:56.473Z,9.10
2018-09-14T06:17:30.832Z,9.20
2018-09-14T06:20:07.744Z,9.30
2018-09-14T06:22:43.930Z,9.30
2018-09-14T06:25:18.339Z,9.40
2018-09-14T06:27:53.188Z,9.40
2018-09-14T06:30:28.865Z,9.50
2018-09-14T06:33:03.384Z,9.60
2018-09-14T06:35:37.938Z,9.60
2018-09-14T06:38:12.673Z,9.80
2018-09-14T06:40:47.096Z,9.90
2018-09-14T06:43:21.847Z,10.00
2018-09-14T06:45:56.100Z,10.10
2018-09-14T06:48:31.088Z,10.20
2018-09-14T06:51:05.681Z,10.10
2018-09-14T06:53:40.174Z,10.30
2018-09-14T06:56:15.575Z,10.40
2018-09-14T06:58:49.908Z,10.50
2018-09-14T07:01:25.001Z,10.70
2018-09-14T07:03:59.911Z,10.80
2018-09-14T07:06:36.644Z,10.90
2018-09-14T07:09:10.999Z,11.10
2018-09-14T07:11:46.587Z,11.10
2018-09-14T07:14:21.396Z,11.10
2018-09-14T07:16:55.649Z,11.30
2018-09-14T07:19:31.001Z,11.30
2018-09-14T07:22:05.331Z,11.40
2018-09-14T07:24:39.950Z,11.50
2018-09-14T07:27:17.531Z,11.60
2018-09-14T07:29:51.778Z,11.70
2018-09-14T07:32:26.111Z,11.90
2018-09-14T07:35:00.348Z,12.00
2018-09-14T07:37:35.074Z,12.10
2018-09-14T07:40:09.553Z,12.30
2018-09-14T07:42:50.672Z,12.40
2018-09-14T07:45:27.669Z,12.40
2018-09-14T07:48:02.292Z,12.50
2018-09-14T07:50:36.608Z,12.60
2018-09-14T07:53:11.013Z,12.60
2018-09-14T07:55:46.458Z,12.60
2018-09-14T07:58:20.872Z,12.60
2018-09-14T08:00:56.322Z,12.70
2018-09-14T08:03:32.903Z,12.80
2018-09-14T08:06:07.293Z,12.90
2018-09-14T08:08:41.536Z,13.00
2018-09-14T08:11:16.373Z,13.10
2018-09-14T08:13:50.797Z,13.20
2018-09-14T08:16:24.953Z,13.30
2018-09-14T08:18:59.183Z,13.40
2018-09-14T08:21:33.493Z,13.50
2018-09-14T08:24:08.276Z,13.60
2018-09-14T08:26:44.557Z,13.70
2018-09-14T08:29:19.543Z,13.80
2018-09-14T08:31:54.889Z,13.90
2018-09-14T08:34:30.869Z,14.00
2018-09-14T08:37:06.060Z,14.00
2018-09-14T08:39:40.213Z,14.00
2018-09-14T08:42:16.168Z,14.10
2018-09-14T08:44:52.228Z,14.20
2018-09-14T08:47:29.031Z,14.30
2018-09-14T08:50:04.615Z,14.40
2018-09-14T08:52:39.790Z,14.50
2018-09-14T08:55:15.840Z,14.60
2018-09-14T08:57:51.164Z,14.60
2018-09-14T09:00:26.391Z,14.50
2018-09-14T09:03:01.772Z,14.60
2018-09-14T09:05:37.000Z,14.70
2018-09-14T09:08:12.967Z,14.80
2018-09-14T09:10:48.066Z,14.90
2018-09-14T09:13:22.537Z,15.00
2018-09-14T09:15:56.844Z,15.10
2018-09-14T09:18:31.242Z,15.10
2018-09-14T09:21:05.604Z,15.20
2018-09-14T09:23:39.961Z,15.30
2018-09-14T09:26:14.444Z,15.50
2018-09-14T09:28:48.653Z,15.60
2018-09-14T09:31:23.104Z,15.70
2018-09-14T09:33:57.371Z,15.80
2018-09-14T09:36:31.716Z,15.80
2018-09-14T09:39:08.853Z,15.80
2018-09-14T09:41:43.303Z,15.90
2018-09-14T09:44:17.492Z,15.90
2018-09-14T09:46:51.724Z,16.00
2018-09-14T09:49:26.161Z,16.00
2018-09-14T09:52:00.364Z,16.10
2018-09-14T09:54:34.617Z,16.20
2018-09-14T09:57:08.833Z,16.30
2018-09-14T09:59:43.164Z,16.30
2018-09-14T10:02:22.750Z,16.50
2018-09-14T10:05:03.158Z,16.60
2018-09-14T10:07:37.369Z,16.70
2018-09-14T10:10:12.759Z,16.70
2018-09-14T10:12:46.987Z,16.70
2018-09-14T10:15:21.305Z,16.70
2018-09-14T10:17:55.576Z,16.80
2018-09-14T10:20:30.190Z,16.90
2018-09-14T10:23:05.429Z,17.10
2018-09-14T10:25:39.700Z,17.40
2018-09-14T10:28:14.111Z,17.50
2018-09-14T10:30:48.310Z,17.60
2018-09-14T10:33:22.498Z,17.70
2018-09-14T10:35:57.384Z,17.80
2018-09-14T10:38:32.984Z,17.80
2018-09-14T10:41:09.197Z,17.80
2018-09-14T10:43:44.550Z,17.80
2018-09-14T10:46:18.856Z,17.80
2018-09-14T10:48:53.295Z,17.80
2018-09-14T10:51:27.387Z,17.90
2018-09-14T10:54:01.910Z,17.90
2018-09-14T10:56:37.767Z,17.90
2018-09-14T10:59:12.129Z,17.90
2018-09-14T11:01:46.967Z,18.00
2018-09-14T11:04:21.592Z,18.10
2018-09-14T11:06:56.872Z,18.40
2018-09-14T11:09:32.048Z,18.70
2018-09-14T11:12:06.609Z,18.90
2018-09-14T11:14:40.878Z,18.80
2018-09-14T11:17:15.209Z,18.60
2018-09-14T11:19:49.511Z,18.60
2018-09-14T11:22:23.855Z,18.60
2018-09-14T11:24:58.359Z,18.70
2018-09-14T11:27:33.357Z,19.00
2018-09-14T11:30:08.739Z,19.20
2018-09-14T11:32:42.997Z,19.40
2018-09-14T11:35:17.626Z,19.70
2018-09-14T11:37:53.019Z,19.80
2018-09-14T11:40:27.174Z,19.70
2018-09-14T11:43:01.757Z,19.70
2018-09-14T11:45:36.018Z,19.90
2018-09-14T11:48:10.463Z,20.10
2018-09-14T11:50:44.758Z,20.30
2018-09-14T11:53:19.477Z,20.40
2018-09-14T11:55:53.735Z,20.70
2018-09-14T11:58:28.499Z,20.80
2018-09-14T12:01:03.006Z,20.40
2018-09-14T12:03:59.725Z,20.40
2018-09-14T12:06:34.069Z,20.30
2018-09-14T12:09:11.577Z,20.60
2018-09-14T12:11:46.135Z,20.80
2018-09-14T12:14:20.789Z,20.70
2018-09-14T12:16:58.279Z,20.60
2018-09-14T12:19:33.904Z,20.60
2018-09-14T12:22:09.133Z,20.50
2018-09-14T12:24:43.743Z,20.30
2018-09-14T12:27:18.189Z,20.30
2018-09-14T12:29:53.823Z,20.20
2018-09-14T12:32:29.078Z,20.50
2018-09-14T12:35:04.841Z,20.90
2018-09-14T12:37:39.952Z,21.10
2018-09-14T12:40:14.501Z,21.40
2018-09-14T12:42:49.107Z,21.60
2018-09-14T12:45:23.339Z,21.80
2018-09-14T12:47:59.121Z,21.60
2018-09-14T12:50:33.715Z,21.90
2018-09-14T12:53:08.269Z,23.50
2018-09-14T12:55:44.042Z,24.50
2018-09-14T12:58:19.028Z,25.10
2018-09-14T13:00:53.657Z,24.50
2018-09-14T13:06:12.021Z,23.30
2018-09-14T13:08:46.526Z,23.00
2018-09-14T13:11:21.121Z,22.40
2018-09-14T13:13:58.956Z,22.30
2018-09-14T13:16:33.420Z,22.20
2018-09-14T13:19:16.463Z,23.40
2018-09-14T13:24:50.193Z,28.10
2018-09-14T13:27:27.930Z,30.20
2018-09-14T13:30:02.366Z,30.80
2018-09-14T13:32:39.430Z,31.10
2018-09-14T13:35:14.327Z,29.60
2018-09-14T13:37:50.316Z,28.00
2018-09-14T13:40:25.092Z,26.90
2018-09-14T13:43:00.310Z,26.10
2018-09-14T13:45:34.777Z,28.30
2018-09-14T13:48:09.403Z,29.70
2018-09-14T13:50:43.872Z,32.00
2018-09-14T13:53:18.504Z,33.30
2018-09-14T13:55:55.449Z,34.90
2018-09-14T13:58:30.775Z,35.90
2018-09-14T14:01:07.064Z,36.10
2018-09-14T14:03:45.997Z,34.30
2018-09-14T14:06:21.596Z,32.70
2018-09-14T14:08:55.982Z,30.90
2018-09-14T14:11:30.311Z,29.50
2018-09-14T14:14:05.174Z,29.60
2018-09-14T14:16:39.644Z,28.70
2018-09-14T14:19:15.287Z,28.60
2018-09-14T14:21:49.961Z,29.40
2018-09-14T14:24:24.505Z,30.90
2018-09-14T14:26:59.186Z,32.00
2018-09-14T14:29:36.670Z,33.80
2018-09-14T14:32:11.324Z,32.90
2018-09-14T14:34:46.977Z,29.60
2018-09-14T14:37:22.206Z,27.30
2018-09-14T14:39:56.736Z,25.90
2018-09-14T14:42:32.033Z,25.60
2018-09-14T14:45:06.407Z,26.10
2018-09-14T14:47:40.821Z,29.30
2018-09-14T14:50:15.302Z,32.70
2018-09-14T14:52:50.896Z,36.00
2018-09-14T14:55:25.212Z,36.30
2018-09-14T14:57:59.787Z,35.20
2018-09-14T15:00:34.133Z,35.10
2018-09-14T15:03:09.805Z,34.40
2018-09-14T15:05:44.276Z,34.70
2018-09-14T15:08:19.825Z,35.30
2018-09-14T15:10:54.809Z,31.30
2018-09-14T15:13:29.167Z,29.10
2018-09-14T15:16:04.371Z,27.90
2018-09-14T15:18:39.833Z,28.70
2018-09-14T15:21:16.184Z,28.20
2018-09-14T15:23:52.326Z,26.50
2018-09-14T15:26:26.878Z,25.30
2018-09-14T15:29:01.180Z,25.40
2018-09-14T15:31:54.844Z,25.50
2018-09-14T15:34:29.144Z,27.10
2018-09-14T15:37:03.482Z,28.60
2018-09-14T15:39:37.938Z,31.80
2018-09-14T15:42:12.438Z,32.20
2018-09-14T15:44:48.943Z,32.70
2018-09-14T15:47:23.913Z,32.30
2018-09-14T15:49:58.364Z,28.90
2018-09-14T15:52:32.958Z,27.00
2018-09-14T15:55:08.140Z,28.60
2018-09-14T15:57:42.887Z,30.30
2018-09-14T16:00:20.812Z,31.70
2018-09-14T16:02:55.276Z,33.20
2018-09-14T16:05:31.085Z,34.10
2018-09-14T16:08:05.496Z,34.20
2018-09-14T16:10:41.602Z,35.50
2018-09-14T16:13:15.944Z,36.50
2018-09-14T16:15:52.478Z,35.50
2018-09-14T16:18:26.723Z,31.90
2018-09-14T16:21:00.958Z,29.90
2018-09-14T16:23:35.258Z,28.90
2018-09-14T16:26:09.526Z,28.80
2018-09-14T16:28:44.490Z,27.30
2018-09-14T16:31:18.885Z,24.70
2018-09-14T16:33:53.978Z,23.50
2018-09-14T16:36:29.379Z,23.00
2018-09-14T16:39:04.906Z,22.50
2018-09-14T16:41:39.870Z,22.20
2018-09-14T16:44:14.316Z,22.00
2018-09-14T16:46:48.535Z,21.70
2018-09-14T16:49:22.920Z,21.40
2018-09-14T16:51:57.445Z,21.10
2018-09-14T16:54:31.798Z,20.70
2018-09-14T16:57:06.529Z,20.50
2018-09-14T16:59:41.289Z,20.30
2018-09-14T17:02:15.983Z,20.00
2018-09-14T17:04:51.026Z,19.70
2018-09-14T17:07:25.508Z,19.50
2018-09-14T17:09:59.881Z,19.30
2018-09-14T17:12:34.380Z,19.10
2018-09-14T17:15:10.394Z,19.00
2018-09-14T17:17:46.833Z,18.80
2018-09-14T17:20:21.152Z,18.70
2018-09-14T17:22:56.653Z,18.60
2018-09-14T17:25:31.177Z,18.50
2018-09-14T17:28:07.252Z,18.40
2018-09-14T17:30:42.185Z,18.30
2018-09-14T17:33:19.772Z,18.10
2018-09-14T17:35:54.072Z,18.00
2018-09-14T17:38:28.633Z,17.90
2018-09-14T17:41:05.833Z,17.80
2018-09-14T17:46:19.998Z,17.50
2018-09-14T17:48:54.562Z,17.40
2018-09-14T17:51:29.158Z,17.30
2018-09-14T17:54:03.482Z,17.20
2018-09-14T17:56:38.170Z,17.10
2018-09-14T17:59:12.396Z,17.10
2018-09-14T18:01:46.977Z,17.00
2018-09-14T18:04:21.611Z,16.90
2018-09-14T18:06:56.770Z,16.80
2018-09-14T18:09:31.804Z,16.70
2018-09-14T18:12:07.107Z,16.60
2018-09-14T18:14:41.756Z,16.40
2018-09-14T18:17:16.164Z,16.30
2018-09-14T18:19:50.404Z,16.20
2018-09-14T18:22:24.828Z,16.20
2018-09-14T18:25:00.465Z,16.00
2018-09-14T18:27:34.843Z,16.00
2018-09-14T18:30:09.252Z,15.90
2018-09-14T18:32:44.220Z,15.80
2018-09-14T18:35:18.576Z,15.80
2018-09-14T18:37:52.792Z,15.70
2018-09-14T18:40:27.216Z,15.60
2018-09-14T18:43:01.697Z,15.60
2018-09-14T18:45:36.360Z,15.50
2018-09-14T18:48:10.943Z,15.50
2018-09-14T18:50:45.448Z,15.40
2018-09-14T18:53:23.965Z,15.40
2018-09-14T18:55:58.665Z,15.30
2018-09-14T18:58:33.917Z,15.30
2018-09-14T19:01:08.616Z,15.20
2018-09-14T19:03:43.010Z,15.10
2018-09-14T19:06:17.357Z,15.00
2018-09-14T19:08:51.817Z,14.90
2018-09-14T19:11:26.209Z,14.90
2018-09-14T19:14:00.515Z,14.90
2018-09-14T19:16:35.196Z,14.80
2018-09-14T19:19:09.607Z,14.70
2018-09-14T19:21:44.212Z,14.60
2018-09-14T19:24:18.603Z,14.60
2018-09-14T19:26:52.818Z,14.60
2018-09-14T19:29:27.980Z,14.60
2018-09-14T19:32:02.264Z,14.60
2018-09-14T19:34:36.588Z,14.50
2018-09-14T19:37:10.951Z,14.50
2018-09-14T19:39:45.437Z,14.40
2018-09-14T19:42:19.839Z,14.40
2018-09-14T19:44:54.285Z,14.30
2018-09-14T19:47:28.714Z,14.30
2018-09-14T19:50:03.113Z,14.20
2018-09-14T19:52:38.611Z,14.10
2018-09-14T19:55:12.793Z,14.00
2018-09-14T19:57:47.722Z,13.90
2018-09-14T20:00:22.118Z,13.90
2018-09-14T20:02:56.589Z,13.80
2018-09-14T20:05:32.219Z,13.80
2018-09-14T20:08:07.644Z,13.70
2018-09-14T20:10:42.409Z,13.70
2018-09-14T20:13:16.884Z,13.70
2018-09-14T20:15:51.106Z,13.70
2018-09-14T20:18:27.053Z,13.70
2018-09-14T20:21:01.287Z,13.70
2018-09-14T20:23:36.150Z,13.60
2018-09-14T20:26:10.491Z,13.60
2018-09-14T20:28:44.909Z,13.60
2018-09-14T20:31:19.638Z,13.60
2018-09-14T20:33:54.287Z,13.50
2018-09-14T20:36:29.109Z,13.50
2018-09-14T20:39:03.706Z,13.50
2018-09-14T20:41:38.333Z,13.50
2018-09-14T20:44:13.122Z,13.50
2018-09-14T20:46:47.696Z,13.50
2018-09-14T20:49:22.007Z,13.50
2018-09-14T20:51:56.260Z,13.50
2018-09-14T20:54:30.605Z,13.50
2018-09-14T20:57:04.949Z,13.60
2018-09-14T20:59:39.590Z,13.50
2018-09-14T21:02:14.065Z,13.60
2018-09-14T21:04:48.247Z,13.60
2018-09-14T21:07:22.690Z,13.60
2018-09-14T21:09:57.246Z,13.70
2018-09-14T21:12:31.720Z,13.70
2018-09-14T21:15:06.120Z,13.80
2018-09-14T21:17:40.976Z,13.90
2018-09-14T21:20:15.189Z,13.90
2018-09-14T21:22:49.588Z,13.90
2018-09-14T21:25:23.924Z,13.90
2018-09-14T21:27:58.126Z,13.90
2018-09-14T21:30:32.457Z,13.90
2018-09-14T21:33:06.883Z,13.90
2018-09-14T21:35:41.165Z,13.90
2018-09-14T21:38:15.688Z,14.00
2018-09-14T21:40:50.652Z,14.00
2018-09-14T21:43:25.024Z,14.00
2018-09-14T21:46:00.471Z,14.00
2018-09-14T21:48:34.786Z,13.90
2018-09-14T21:51:10.031Z,13.90
2018-09-14T21:53:44.300Z,13.90
2018-09-14T21:56:18.668Z,13.90
2018-09-14T21:58:53.127Z,13.90
2018-09-14T22:01:28.808Z,13.90
2018-09-14T22:04:03.244Z,13.90
2018-09-14T22:06:37.607Z,13.90
2018-09-14T22:09:11.858Z,13.90
2018-09-14T22:11:46.167Z,13.90
2018-09-14T22:14:20.579Z,13.90
2018-09-14T22:16:54.840Z,13.90
2018-09-14T22:19:29.201Z,13.90
2018-09-14T22:22:03.761Z,13.80
2018-09-14T22:24:38.026Z,13.80
2018-09-14T22:27:12.870Z,13.80
2018-09-14T22:29:47.064Z,13.70
2018-09-14T22:32:21.481Z,13.70
2018-09-14T22:34:56.664Z,13.70
2018-09-14T22:37:31.363Z,13.70
2018-09-14T22:40:06.434Z,13.70
2018-09-14T22:42:41.852Z,13.60
2018-09-14T22:45:16.916Z,13.60
2018-09-14T22:47:51.240Z,13.60
2018-09-14T22:50:25.557Z,13.60
2018-09-14T22:52:59.808Z,13.60
2018-09-14T22:55:34.250Z,13.70
2018-09-14T22:58:09.282Z,13.80
2018-09-14T23:00:49.016Z,13.80
2018-09-14T23:03:23.399Z,13.80
2018-09-14T23:05:57.760Z,13.80
2018-09-14T23:08:32.300Z,14.00
2018-09-14T23:11:08.100Z,14.00
2018-09-14T23:13:42.713Z,14.00
2018-09-14T23:16:17.097Z,13.90
2018-09-14T23:18:51.528Z,13.90
2018-09-14T23:21:25.928Z,13.80
2018-09-14T23:24:00.511Z,13.80
2018-09-14T23:26:35.847Z,13.70
2018-09-14T23:29:10.167Z,13.70
2018-09-14T23:31:44.398Z,13.70
2018-09-14T23:34:18.654Z,13.60
2018-09-14T23:36:53.035Z,13.60
2018-09-14T23:39:27.376Z,13.50
2018-09-14T23:42:01.864Z,13.40
2018-09-14T23:44:36.223Z,13.30
2018-09-14T23:47:10.593Z,13.40
2018-09-14T23:49:44.929Z,13.40
2018-09-14T23:52:20.462Z,13.40
2018-09-14T23:54:54.767Z,13.40
2018-09-14T23:57:29.206Z,13.50
